Hauptseite
METAR-TAF:

METAR-TAF

Flughäfen :

Flughafen Grenoble Alpes Isère

Grenoble, Frankreich

Breite: 45-22N, Länge: 005-20E, Höhe: 384 m

Beobachtung

Neuester Wetterbericht von vor 20 Minuten, um 13:00 UTC
Wind 12 kt aus Nord/Nordwest, variierte zwischen West/Nordwest und Nord/Nordost
Temperatur 28°C
Luftfeuchtigkeit 40%
Luftdruck 1018 hPa
Sichtweite 10 km oder mehr
keine Wolken unter 1500 m und keine Kumulonimbus oder Gewitterwolken

METAR: LFLS 171300Z AUTO 34012KT 300V020 CAVOK 28/13 Q1018 NOSIG

Zeit: 15:20 (13:20 UTC)

Prognose

Neuester Wetterbericht von vor 5 Stunden und 20 Minuten, um 08:00 UTC
Gültige Prognose vom 17 um 09 UTC bis 18 um 09 UTC
Wind 10 kt aus Nord/Nordwest
Sichtweite 10 km oder mehr
Aufgelockert bewölkt in der Höhe von 3000 ft
Übergehend zu
vom 17 um 23 UTC bis 18 um 02 UTC
Wind 2 kt aus unterschiedlichen Richtungen

TAF: LFLS 170800Z 1709/1809 34010KT 9999 SCT030 BECMG 1723/1802 VRB02KT

Wetterbeobachtungen und Prognosen von mehr als 4000 Flughäfen (METAR und TAF Bericht).

Die verfügbaren Stationen werden durch gelbe und rote Markierungen auf der Karte dargestellt.

Führen Sie die Maus auf sie, um den Namen der Station zu sehen.

Darauf klicken, um die Beobachtung von Wetterbeobachtungen und Prognosen zu sehen.

Um die Karte zu ändern : klicken Sie auf den grünen Tasten mit einem schwarzen Kreuz Zum Vergrößern, auf den grünen Button mit einem Gedankenstrich zu verkleinern, oder auf die grünen Pfeile für benachbarte Karten.


METAR-TAF: